createdAt,value
2023-01-30T00:00:55.663Z,59.98
2023-01-30T00:03:57.139Z,59.79
2023-01-30T00:06:58.612Z,59.53
2023-01-30T00:10:00.086Z,59.73
2023-01-30T00:13:01.728Z,59.59
2023-01-30T00:16:03.814Z,59.40
2023-01-30T00:19:05.394Z,59.64
2023-01-30T00:22:06.842Z,59.89
2023-01-30T00:25:08.551Z,59.81
2023-01-30T00:28:10.053Z,59.79
2023-01-30T00:31:11.506Z,59.89
2023-01-30T00:34:13.008Z,59.83
2023-01-30T00:37:14.649Z,59.50
2023-01-30T00:40:16.948Z,59.71
2023-01-30T00:43:38.685Z,59.78
2023-01-30T00:46:58.542Z,59.59
2023-01-30T00:50:01.067Z,59.60
2023-01-30T00:53:03.362Z,59.53
2023-01-30T00:56:05.409Z,59.44
2023-01-30T00:59:06.969Z,59.51
2023-01-30T01:02:08.521Z,59.32
2023-01-30T01:05:10.075Z,59.41
2023-01-30T01:08:12.029Z,59.47
2023-01-30T01:11:24.123Z,59.75
2023-01-30T01:14:25.877Z,59.58
2023-01-30T01:17:27.561Z,59.19
2023-01-30T01:20:29.079Z,59.62
2023-01-30T01:23:30.579Z,59.59
2023-01-30T01:26:32.173Z,59.63
2023-01-30T01:29:33.692Z,60.00
2023-01-30T01:32:35.260Z,59.72
2023-01-30T01:35:41.010Z,59.65
2023-01-30T01:38:43.393Z,59.52
2023-01-30T01:41:44.978Z,59.56
2023-01-30T01:45:02.743Z,59.72
2023-01-30T01:48:10.139Z,59.68
2023-01-30T01:51:14.541Z,59.51
2023-01-30T01:54:27.476Z,59.73
2023-01-30T01:57:39.260Z,59.89
2023-01-30T02:00:41.300Z,59.88
2023-01-30T02:03:47.467Z,59.83
2023-01-30T02:06:50.831Z,59.65
2023-01-30T02:09:52.675Z,59.95
2023-01-30T02:12:55.218Z,59.95
2023-01-30T02:15:59.830Z,59.94
2023-01-30T02:19:01.404Z,59.72
2023-01-30T02:22:14.334Z,59.87
2023-01-30T02:25:57.036Z,59.84
2023-01-30T02:29:12.714Z,59.61
2023-01-30T02:32:38.707Z,59.67
2023-01-30T02:35:46.441Z,59.78
2023-01-30T02:39:33.209Z,59.69
2023-01-30T02:42:45.215Z,59.59
2023-01-30T02:46:05.522Z,59.63
2023-01-30T02:49:14.825Z,59.71
2023-01-30T02:52:18.378Z,59.74
2023-01-30T02:55:26.674Z,59.76
2023-01-30T02:58:44.784Z,59.55
2023-01-30T03:02:10.839Z,59.78
2023-01-30T03:05:28.001Z,59.71
2023-01-30T03:08:38.631Z,59.82
2023-01-30T03:12:00.722Z,59.73
2023-01-30T03:15:17.431Z,59.63
2023-01-30T03:18:20.465Z,59.71
2023-01-30T03:21:21.974Z,59.75
2023-01-30T03:24:26.789Z,59.81
2023-01-30T03:27:28.516Z,59.54
2023-01-30T03:30:30.430Z,59.63
2023-01-30T03:33:42.446Z,59.52
2023-01-30T03:36:44.443Z,59.56
2023-01-30T03:39:45.914Z,59.57
2023-01-30T03:42:49.951Z,59.55
2023-01-30T03:45:51.707Z,59.53
2023-01-30T03:48:53.284Z,59.50
2023-01-30T03:51:54.844Z,59.75
2023-01-30T03:54:56.337Z,60.04
2023-01-30T03:57:57.909Z,59.71
2023-01-30T04:01:02.684Z,59.71
2023-01-30T04:04:05.345Z,59.71
2023-01-30T04:07:06.804Z,59.75
2023-01-30T04:10:09.646Z,59.74
2023-01-30T04:13:11.363Z,59.73
2023-01-30T04:16:17.899Z,59.65
2023-01-30T04:19:37.654Z,59.66
2023-01-30T04:22:39.602Z,59.89
2023-01-30T04:25:41.082Z,59.91
2023-01-30T04:28:44.566Z,59.86
2023-01-30T04:31:47.353Z,60.01
2023-01-30T04:34:54.815Z,59.83
2023-01-30T04:37:56.823Z,60.08
2023-01-30T04:40:58.365Z,59.79
2023-01-30T04:44:02.540Z,60.06
2023-01-30T04:47:23.446Z,60.01
2023-01-30T04:50:25.164Z,59.93
2023-01-30T04:53:26.681Z,59.56
2023-01-30T04:56:28.687Z,59.68
2023-01-30T04:59:30.228Z,59.87
2023-01-30T05:02:35.924Z,59.44
2023-01-30T05:05:37.441Z,59.27
2023-01-30T05:08:38.923Z,59.28
2023-01-30T05:11:41.252Z,59.23
2023-01-30T05:14:42.963Z,58.93
2023-01-30T05:17:44.801Z,58.87
2023-01-30T05:20:46.358Z,58.85
2023-01-30T05:23:48.130Z,58.78
2023-01-30T05:26:49.599Z,58.68
2023-01-30T05:29:51.212Z,58.63
2023-01-30T05:32:52.732Z,58.54
2023-01-30T05:35:54.230Z,58.42
2023-01-30T05:38:55.775Z,58.29
2023-01-30T05:41:57.340Z,58.25
2023-01-30T05:44:58.862Z,58.33
2023-01-30T05:48:01.552Z,58.59
2023-01-30T05:51:03.415Z,58.42
2023-01-30T05:54:04.991Z,58.48
2023-01-30T05:57:06.472Z,58.63
2023-01-30T06:00:08.586Z,58.81
2023-01-30T06:03:14.586Z,58.73
2023-01-30T06:06:16.433Z,58.88
2023-01-30T06:09:17.995Z,58.89
2023-01-30T06:12:19.440Z,58.77
2023-01-30T06:15:20.906Z,59.07
2023-01-30T06:18:22.709Z,59.11
2023-01-30T06:21:24.287Z,59.06
2023-01-30T06:24:25.790Z,59.12
2023-01-30T06:27:27.291Z,59.15
2023-01-30T06:30:28.864Z,59.11
2023-01-30T06:33:30.421Z,59.06
2023-01-30T06:36:32.350Z,59.00
2023-01-30T06:39:33.829Z,58.89
2023-01-30T06:42:35.321Z,58.78
2023-01-30T06:45:36.986Z,58.79
2023-01-30T06:48:38.529Z,58.65
2023-01-30T06:51:40.021Z,58.44
2023-01-30T06:54:41.477Z,58.73
2023-01-30T06:57:43.724Z,58.45
2023-01-30T07:00:45.167Z,58.39
2023-01-30T07:03:47.362Z,58.72
2023-01-30T07:06:49.930Z,58.30
2023-01-30T07:10:06.898Z,58.05
2023-01-30T07:13:10.015Z,58.11
2023-01-30T07:16:11.542Z,58.24
2023-01-30T07:19:13.006Z,58.05
2023-01-30T07:22:14.631Z,58.00
2023-01-30T07:25:16.868Z,58.00
2023-01-30T07:28:18.642Z,58.02
2023-01-30T07:31:20.119Z,58.04
2023-01-30T07:34:21.653Z,57.98
2023-01-30T07:37:23.183Z,57.94
2023-01-30T07:40:25.208Z,57.99
2023-01-30T07:43:26.668Z,57.75
2023-01-30T07:46:34.722Z,58.00
2023-01-30T07:49:36.305Z,58.07
2023-01-30T07:52:38.760Z,58.00
2023-01-30T07:55:40.641Z,58.10
2023-01-30T07:58:42.119Z,58.05
2023-01-30T08:01:43.639Z,58.13
2023-01-30T08:04:45.197Z,57.96
2023-01-30T08:07:49.597Z,58.01
2023-01-30T08:10:51.153Z,57.97
2023-01-30T08:13:52.609Z,58.29
2023-01-30T08:16:55.916Z,58.03
2023-01-30T08:19:57.363Z,58.05
2023-01-30T08:23:01.798Z,57.89
2023-01-30T08:26:04.885Z,58.13
2023-01-30T08:29:06.469Z,58.01
2023-01-30T08:32:08.193Z,58.05
2023-01-30T08:35:10.369Z,57.92
2023-01-30T08:38:11.899Z,57.87
2023-01-30T08:41:13.380Z,58.02
2023-01-30T08:44:14.899Z,58.12
2023-01-30T08:47:16.372Z,58.17
2023-01-30T08:50:18.101Z,58.28
2023-01-30T08:53:19.924Z,58.43
2023-01-30T08:56:21.435Z,58.53
2023-01-30T08:59:22.935Z,58.50
2023-01-30T09:02:24.528Z,58.73
2023-01-30T09:05:26.084Z,58.82
2023-01-30T09:08:27.736Z,58.81
2023-01-30T09:11:29.266Z,58.74
2023-01-30T09:14:30.778Z,58.82
2023-01-30T09:17:32.298Z,58.81
2023-01-30T09:20:33.996Z,58.77
2023-01-30T09:23:35.720Z,58.78
2023-01-30T09:26:37.344Z,58.70
2023-01-30T09:29:38.916Z,58.79
2023-01-30T09:32:40.376Z,58.93
2023-01-30T09:35:42.302Z,58.92
2023-01-30T09:38:43.750Z,58.84
2023-01-30T09:42:10.024Z,58.83
2023-01-30T09:45:33.235Z,58.84
2023-01-30T09:49:17.667Z,58.72
2023-01-30T09:52:34.095Z,58.78
2023-01-30T09:55:41.476Z,58.84
2023-01-30T09:58:55.760Z,58.87
2023-01-30T10:02:18.577Z,58.92
2023-01-30T10:05:20.129Z,58.92
2023-01-30T10:08:36.516Z,58.93
2023-01-30T10:12:12.227Z,58.99
2023-01-30T10:15:28.982Z,59.12
2023-01-30T10:18:45.476Z,59.12
2023-01-30T10:22:10.004Z,59.09
2023-01-30T10:25:20.350Z,59.05
2023-01-30T10:28:34.889Z,59.02
2023-01-30T10:31:43.874Z,58.85
2023-01-30T10:34:49.642Z,58.91
2023-01-30T10:38:03.688Z,58.91
2023-01-30T10:41:15.481Z,58.93
2023-01-30T10:44:18.935Z,58.91
2023-01-30T10:47:46.226Z,58.91
2023-01-30T10:51:05.443Z,58.93
2023-01-30T10:54:28.488Z,59.05
2023-01-30T10:57:43.342Z,58.93
2023-01-30T11:00:58.670Z,59.07
2023-01-30T11:04:04.499Z,59.02
2023-01-30T11:07:06.925Z,59.13
2023-01-30T11:10:17.075Z,59.06
2023-01-30T11:13:30.546Z,59.05
2023-01-30T11:16:40.158Z,58.99
2023-01-30T11:19:42.275Z,59.08
2023-01-30T11:23:04.979Z,59.26
2023-01-30T11:26:18.842Z,59.31
2023-01-30T11:29:32.743Z,59.14
2023-01-30T11:32:34.510Z,59.20
2023-01-30T11:35:42.357Z,59.10
2023-01-30T11:38:56.712Z,58.98
2023-01-30T11:42:04.728Z,58.99
2023-01-30T11:45:17.640Z,59.28
2023-01-30T11:48:33.344Z,59.11
2023-01-30T11:51:45.501Z,59.22
2023-01-30T11:54:48.800Z,59.36
2023-01-30T11:57:58.519Z,59.44
2023-01-30T12:01:00.843Z,59.47
2023-01-30T12:04:07.907Z,59.43
2023-01-30T12:07:27.955Z,59.29
2023-01-30T12:10:32.553Z,59.29
2023-01-30T12:13:45.356Z,59.21
2023-01-30T12:16:55.714Z,59.30
2023-01-30T12:20:17.685Z,59.13
2023-01-30T12:23:46.117Z,59.15
2023-01-30T12:26:52.814Z,59.29
2023-01-30T12:30:12.042Z,59.38
2023-01-30T12:36:33.038Z,59.82
2023-01-30T12:39:56.214Z,60.02
2023-01-30T12:43:36.123Z,60.23
2023-01-30T12:47:15.033Z,60.20
2023-01-30T12:50:28.634Z,60.23
2023-01-30T12:53:42.325Z,60.40
2023-01-30T12:56:56.035Z,60.55
2023-01-30T13:00:03.716Z,60.65
2023-01-30T13:03:31.440Z,60.73
2023-01-30T13:06:46.731Z,60.75
2023-01-30T13:10:09.804Z,60.80
2023-01-30T13:13:42.285Z,60.72
2023-01-30T13:17:00.664Z,60.68
2023-01-30T13:20:20.536Z,60.89
2023-01-30T13:23:33.664Z,60.82
2023-01-30T13:26:37.605Z,60.89
2023-01-30T13:29:41.135Z,60.86
2023-01-30T13:32:50.125Z,60.84
2023-01-30T13:35:58.808Z,60.68
2023-01-30T13:39:11.139Z,60.71
2023-01-30T13:42:30.745Z,60.72
2023-01-30T13:45:35.813Z,60.68
2023-01-30T13:48:55.586Z,60.68
2023-01-30T13:52:15.509Z,60.67
2023-01-30T13:55:26.400Z,60.70
2023-01-30T13:58:38.499Z,60.57
2023-01-30T14:02:06.391Z,60.63
2023-01-30T14:05:09.804Z,60.69
2023-01-30T14:08:17.228Z,60.66
2023-01-30T14:11:32.376Z,60.66
2023-01-30T14:14:40.626Z,60.68
2023-01-30T14:17:57.450Z,60.52
2023-01-30T14:21:20.290Z,60.55
2023-01-30T14:24:27.321Z,60.54
2023-01-30T14:27:32.020Z,60.64
2023-01-30T14:30:52.025Z,60.63
2023-01-30T14:33:53.536Z,60.70
2023-01-30T14:36:55.118Z,60.74
2023-01-30T14:39:59.617Z,60.54
2023-01-30T14:43:13.252Z,60.66
2023-01-30T14:46:17.859Z,60.56
2023-01-30T14:49:28.732Z,60.62
2023-01-30T14:52:41.338Z,60.60
2023-01-30T14:55:42.850Z,60.58
2023-01-30T14:59:00.681Z,60.57
2023-01-30T15:02:14.794Z,60.43
2023-01-30T15:05:40.833Z,60.46
2023-01-30T15:08:44.348Z,60.35
2023-01-30T15:11:56.740Z,60.51
2023-01-30T15:15:19.892Z,60.46
2023-01-30T15:18:31.700Z,60.33
2023-01-30T15:22:11.884Z,60.19
2023-01-30T15:25:25.813Z,60.24
2023-01-30T15:28:39.577Z,60.16
2023-01-30T15:31:55.305Z,60.11
2023-01-30T15:35:16.084Z,60.17
2023-01-30T15:38:26.516Z,60.39
2023-01-30T15:41:31.058Z,60.66
2023-01-30T15:44:49.652Z,61.09
2023-01-30T15:48:16.165Z,61.22
2023-01-30T15:51:23.001Z,61.39
2023-01-30T15:54:24.501Z,61.54
2023-01-30T15:57:34.359Z,61.62
2023-01-30T16:00:40.259Z,61.60
2023-01-30T16:03:42.844Z,61.48
2023-01-30T16:06:44.409Z,61.25
2023-01-30T16:10:06.778Z,61.01
2023-01-30T16:13:08.726Z,61.01
2023-01-30T16:16:18.218Z,60.73
2023-01-30T16:19:26.551Z,60.69
2023-01-30T16:22:32.893Z,60.57
2023-01-30T16:25:34.648Z,60.54
2023-01-30T16:28:36.195Z,60.37
2023-01-30T16:31:40.059Z,60.27
2023-01-30T16:34:41.801Z,60.24
2023-01-30T16:37:43.754Z,60.19
2023-01-30T16:40:46.571Z,60.11
2023-01-30T16:44:16.367Z,60.14
2023-01-30T16:47:23.084Z,59.90
2023-01-30T16:50:24.694Z,60.09
2023-01-30T16:53:29.526Z,59.84
2023-01-30T16:56:34.406Z,59.61
2023-01-30T16:59:37.790Z,59.50
2023-01-30T17:02:42.056Z,59.33
2023-01-30T17:05:46.634Z,59.17
2023-01-30T17:08:55.503Z,58.83
2023-01-30T17:11:57.030Z,58.78
2023-01-30T17:15:13.700Z,58.75
2023-01-30T17:18:15.173Z,58.77
2023-01-30T17:21:17.417Z,58.50
2023-01-30T17:24:21.655Z,58.54
2023-01-30T17:27:23.515Z,58.51
2023-01-30T17:30:25.365Z,58.50
2023-01-30T17:33:26.850Z,58.48
2023-01-30T17:36:30.564Z,58.48
2023-01-30T17:39:33.068Z,58.60
2023-01-30T17:42:34.598Z,58.71
2023-01-30T17:45:36.289Z,58.78
2023-01-30T17:48:37.901Z,58.87
2023-01-30T17:51:39.355Z,58.68
2023-01-30T17:54:40.880Z,59.01
2023-01-30T17:57:45.902Z,58.80
2023-01-30T18:00:47.356Z,58.87
2023-01-30T18:03:48.820Z,59.17
2023-01-30T18:06:53.796Z,58.83
2023-01-30T18:09:55.316Z,58.95
2023-01-30T18:12:56.821Z,58.87
2023-01-30T18:16:03.305Z,58.75
2023-01-30T18:19:07.386Z,58.80
2023-01-30T18:22:08.892Z,58.79
2023-01-30T18:25:13.295Z,58.90
2023-01-30T18:28:14.782Z,58.78
2023-01-30T18:31:16.468Z,58.80
2023-01-30T18:34:17.994Z,58.73
2023-01-30T18:37:19.486Z,58.91
2023-01-30T18:40:22.264Z,58.66
2023-01-30T18:43:25.090Z,58.31
2023-01-30T18:46:27.839Z,58.34
2023-01-30T18:49:30.021Z,58.21
2023-01-30T18:52:31.839Z,58.01
2023-01-30T18:55:33.614Z,58.16
2023-01-30T18:58:35.284Z,58.12
2023-01-30T19:01:38.991Z,58.16
2023-01-30T19:04:40.706Z,58.15
2023-01-30T19:07:42.205Z,58.18
2023-01-30T19:10:43.734Z,58.19
2023-01-30T19:13:45.188Z,57.98
2023-01-30T19:16:46.830Z,58.33
2023-01-30T19:19:48.445Z,58.44
2023-01-30T19:22:50.006Z,58.47
2023-01-30T19:26:00.726Z,58.63
2023-01-30T19:29:02.612Z,58.56
2023-01-30T19:32:04.535Z,58.62
2023-01-30T19:35:06.769Z,58.49
2023-01-30T19:38:08.643Z,58.67
2023-01-30T19:41:28.233Z,58.61
2023-01-30T19:44:29.707Z,58.62
2023-01-30T19:47:31.367Z,58.76
2023-01-30T19:50:32.870Z,58.60
2023-01-30T19:53:34.409Z,58.46
2023-01-30T19:56:38.446Z,58.65
2023-01-30T19:59:39.955Z,58.66
2023-01-30T20:02:41.492Z,58.55
2023-01-30T20:05:43.412Z,58.82
2023-01-30T20:08:48.176Z,58.74
2023-01-30T20:11:49.818Z,58.80
2023-01-30T20:14:51.413Z,58.90
2023-01-30T20:17:53.003Z,58.88
2023-01-30T20:20:54.551Z,58.91
2023-01-30T20:23:57.015Z,58.79
2023-01-30T20:26:58.693Z,59.03
2023-01-30T20:30:00.362Z,58.79
2023-01-30T20:33:01.857Z,58.93
2023-01-30T20:36:05.209Z,58.83
2023-01-30T20:39:07.608Z,58.78
2023-01-30T20:42:09.261Z,58.84
2023-01-30T20:45:10.937Z,58.78
2023-01-30T20:48:12.419Z,58.59
2023-01-30T20:51:19.220Z,58.81
2023-01-30T20:54:23.127Z,58.88
2023-01-30T20:57:25.935Z,58.81
2023-01-30T21:00:27.547Z,58.93
2023-01-30T21:03:29.008Z,59.10
2023-01-30T21:06:41.168Z,58.87
2023-01-30T21:09:44.972Z,58.98
2023-01-30T21:12:46.837Z,58.97
2023-01-30T21:15:48.518Z,59.09
2023-01-30T21:18:54.695Z,59.05
2023-01-30T21:22:07.462Z,58.95
2023-01-30T21:25:08.991Z,59.02
2023-01-30T21:28:10.486Z,58.91
2023-01-30T21:31:15.548Z,58.98
2023-01-30T21:34:17.122Z,58.90
2023-01-30T21:37:36.974Z,59.05
2023-01-30T21:40:56.896Z,59.05
2023-01-30T21:43:58.976Z,58.60
2023-01-30T21:47:00.490Z,59.04
2023-01-30T21:50:02.113Z,58.95
2023-01-30T21:53:03.675Z,59.23
2023-01-30T21:56:05.523Z,59.13
2023-01-30T21:59:07.463Z,58.87
2023-01-30T22:02:10.219Z,58.93
2023-01-30T22:05:11.742Z,58.74
2023-01-30T22:08:13.266Z,58.79
2023-01-30T22:11:16.531Z,58.84
2023-01-30T22:14:17.999Z,58.74
2023-01-30T22:17:19.608Z,58.84
2023-01-30T22:20:21.096Z,58.76
2023-01-30T22:23:22.605Z,58.82
2023-01-30T22:26:25.835Z,58.84
2023-01-30T22:29:28.959Z,58.80
2023-01-30T22:32:30.443Z,58.84
2023-01-30T22:35:31.934Z,58.93
2023-01-30T22:38:34.325Z,58.92
2023-01-30T22:41:36.315Z,58.90
2023-01-30T22:44:39.719Z,58.95
2023-01-30T22:47:41.196Z,58.95
2023-01-30T22:50:42.654Z,58.94
2023-01-30T22:53:49.642Z,58.92
2023-01-30T22:56:51.812Z,58.85
2023-01-30T22:59:53.341Z,58.93
2023-01-30T23:02:55.996Z,58.97
2023-01-30T23:06:01.923Z,58.83
2023-01-30T23:09:04.739Z,58.89
2023-01-30T23:12:24.564Z,58.91
2023-01-30T23:15:26.039Z,58.72
2023-01-30T23:18:46.851Z,58.97
2023-01-30T23:21:48.471Z,58.87
2023-01-30T23:24:51.150Z,58.82
2023-01-30T23:27:52.922Z,58.77
2023-01-30T23:30:54.416Z,58.78
2023-01-30T23:33:58.440Z,58.68
2023-01-30T23:36:59.990Z,58.69
2023-01-30T23:40:01.508Z,58.93
2023-01-30T23:43:03.114Z,58.92
2023-01-30T23:46:23.060Z,58.76
2023-01-30T23:49:24.682Z,58.63
2023-01-30T23:52:26.723Z,58.73
2023-01-30T23:55:28.256Z,58.44
2023-01-30T23:58:29.856Z,58.41
